Detall de PIREP

Printer-friendly versionPDF version

[2015/12/09 12:26:00]
Flight IATA:CT3224
Pilot Number:016
Company ICAO:CAT
Aircraft Type:B763/F
PAX:218
Departing Airport: LEPA
Destination Airport: LJLJ
Alternate Airport:LDZA
Online: VATSIM
Route:MEROS UN853 LUMAS UM985 GEN UM859 BARPI
Flight Level:F370
No Slew and time accel
No pause
Crash detect
Detect pilot in Cockpit between each 30 and 45 minutes
12:26 Zero fuel Weight: 252053 Lbs, Fuel Weight: 65066 Lbs
12:26 VATSIM:LEPA 091800Z 06004KT CAVOK 13/09 Q1036 NOSIG
12:26 VATSIM:LJLJ 091800Z VRB02KT 5000 BR BKN008 02/01 Q1033 NOSIG
12:27 Parking Brakes off
12:35 Take-off
12:35 Take off Weight: 315003 Lbs
12:35 Wind: 020º @ 006 Knots Heading: 239º
12:35 POS N39º 33´ 16´´ E002º 43´ 35´´
12:35 Gear Up: 172 Knots
12:35 Flaps:3 at 172 Knots
12:37 Flaps:2 at 201 Knots
12:37 Flaps:1 at 214 Knots
12:38 Flaps:0 at 230 Knots
12:48 TOC
12:48 Fuel Weight: 56490 Lb
12:50 Wind:019º@048 Knots Heading: 055º Ground Speed: 413 Knots Altitude 37644 ft
13:05 Wind:345º@026 Knots Heading: 008º Ground Speed: 425 Knots Altitude 37621 ft
13:20 Wind:353º@088 Knots Heading: 032º Ground Speed: 380 Knots Altitude 37483 ft
13:35 Wind:349º@009 Knots Heading: 053º Ground Speed: 446 Knots Altitude 37539 ft
13:50 Wind:241º@001 Knots Heading: 085º Ground Speed: 451 Knots Altitude 37480 ft
14:03 TOD
14:03 Fuel Weight: 44128 Lb
14:05 Wind:270º@011 Knots Heading: 059º Ground Speed: 419 Knots Altitude 33595 ft
14:20 Wind:055º@002 Knots Heading: 059º Ground Speed: 277 Knots Altitude 10193 ft
14:20 Flaps:1 at 240 Knots
14:20 Flaps:2 at 230 Knots
14:21 Flaps:3 at 207 Knots
14:22 Flaps:4 at 187 Knots
14:24 Gear Down: 170 Knots
14:24 Flaps:5 at 167 Knots
14:25 Flaps:6 at 146 Knots
14:30 TouchDown:Rate -205 ft/min Speed: 136 Knots
14:30 VATSIM:LJLJ 092100Z 10001KT 4000 BR OVC005 02/01 Q1034 NOSIG
14:30 Land
14:30 Wind:000º@000 Knots
14:30 Heading: 306º
14:30 Flight Duration: 01:55
14:30 Landing Weight: 293228 Lbs
14:30 POS N46º 13´ 22´´ E014º 27´ 32´´
14:32 Parking brakes on
14:32 Block to Block Duration: 02:05
14:32 Final Fuel: 40965 Lbls
14:32 Spent Fuel: 24100 Lbls
14:32 Flight Length: 738 NM
14:32 TOD Land Length: 125 NM

Exportar CSV

Powered by Drupal - Modified by Danger4k